This is the latest recevied weather packets stored in our database for station/object W1GK. If no packets are shown the sender has not sent any weather packets the latest 10 day(s).
| Time | Temp. | Humidity | Pressure | Rain* | Wind** | Luminosity | Snow |
|---|---|---|---|---|---|---|---|
| 1777592998 | 27.22° C | 13% | 1009.7 hPa | 0 mm | - | 455 W/m² | - |
| 1777592397 | 28.33° C | 13% | 1009.7 hPa | 0 mm | - | 483 W/m² | - |
| 1777591800 | 28.89° C | 12% | 1009.8 hPa | 0 mm | - | 517 W/m² | - |
| 1777591198 | 28.89° C | 12% | 1009.9 hPa | 0 mm | - | 548 W/m² | - |
| 1777590597 | 28.33° C | 13% | 1010.1 hPa | 0 mm | - | 577 W/m² | - |
| 1777589997 | 28.33° C | 13% | 1010.2 hPa | 0 mm | - | 606 W/m² | - |
| 1777589399 | 27.78° C | 13% | 1010.3 hPa | 0 mm | - | 631 W/m² | - |
| 1777588798 | 27.78° C | 13% | 1010.5 hPa | 0 mm | - | 654 W/m² | - |
| 1777588200 | 27.78° C | 13% | 1010.6 hPa | 0 mm | - | 679 W/m² | - |
| 1777587601 | 28.33° C | 13% | 1010.8 hPa | 0 mm | - | 710 W/m² | - |
| 1777586997 | 27.78° C | 13% | 1010.9 hPa | 0 mm | - | 729 W/m² | - |
| 1777586398 | 27.78° C | 13% | 1011.3 hPa | 0 mm | - | 744 W/m² | - |
| 1777585796 | 27.78° C | 14% | 1011.3 hPa | 0 mm | - | 784 W/m² | - |
| 1777585197 | 27.78° C | 13% | 1011.5 hPa | 0 mm | - | 795 W/m² | - |
| 1777584597 | 28.33° C | 13% | 1011.6 hPa | 0 mm | - | 837 W/m² | - |
| 1777583997 | 28.89° C | 13% | 1011.6 hPa | 0 mm | - | 687 W/m² | - |
| 1777583398 | 28.33° C | 13% | 1011.9 hPa | 0 mm | - | 253 W/m² | - |
| 1777582797 | 27.78° C | 14% | 1012.1 hPa | 0 mm | - | 56 W/m² | - |
| 1777582197 | 27.78° C | 14% | 1012.1 hPa | 0 mm | - | 137 W/m² | - |
| 1777581596 | 27.22° C | 14% | 1012.4 hPa | 0 mm | - | 571 W/m² | - |
| 1777580997 | 27.78° C | 14% | 1012.3 hPa | 0 mm | - | 875 W/m² | - |
| 1777580398 | 27.22° C | 14% | 1012.5 hPa | 0 mm | - | 891 W/m² | - |
| 1777579796 | 27.22° C | 14% | 1012.6 hPa | 0 mm | - | 895 W/m² | - |
| 1777579197 | 27.22° C | 14% | 1012.6 hPa | 0 mm | - | 900 W/m² | - |
| 1777578598 | 26.67° C | 14% | 1012.8 hPa | 0 mm | - | 900 W/m² | - |
* Rain latest hour (hover to see other rain measurements)
** Current wind speed in m/s (hover to see current wind gust speed)